sensor_id;sensor_type;location;lat;lon;timestamp;P1;durP1;ratioP1;P2;durP2;ratioP2
65459;SDS011;52058;49.822;6.754;2023-06-05T00:00:08;3.42;;;2.67;;
65459;SDS011;52058;49.822;6.754;2023-06-05T00:02:37;3.85;;;2.83;;
65459;SDS011;52058;49.822;6.754;2023-06-05T00:05:04;4.45;;;2.85;;
65459;SDS011;52058;49.822;6.754;2023-06-05T00:07:33;4.38;;;3.20;;
65459;SDS011;52058;49.822;6.754;2023-06-05T00:10:00;4.85;;;4.30;;
65459;SDS011;52058;49.822;6.754;2023-06-05T00:12:26;3.55;;;2.60;;
65459;SDS011;52058;49.822;6.754;2023-06-05T00:14:53;4.95;;;3.28;;
65459;SDS011;52058;49.822;6.754;2023-06-05T00:17:19;4.22;;;2.90;;
65459;SDS011;52058;49.822;6.754;2023-06-05T00:19:47;4.55;;;2.90;;
65459;SDS011;52058;49.822;6.754;2023-06-05T00:22:14;3.67;;;3.20;;
65459;SDS011;52058;49.822;6.754;2023-06-05T00:24:40;4.30;;;2.78;;
65459;SDS011;52058;49.822;6.754;2023-06-05T00:27:07;4.07;;;2.63;;
65459;SDS011;52058;49.822;6.754;2023-06-05T00:29:33;5.15;;;3.10;;
65459;SDS011;52058;49.822;6.754;2023-06-05T00:32:00;4.22;;;3.05;;
65459;SDS011;52058;49.822;6.754;2023-06-05T00:34:26;3.75;;;3.03;;
65459;SDS011;52058;49.822;6.754;2023-06-05T00:36:54;3.97;;;3.25;;
65459;SDS011;52058;49.822;6.754;2023-06-05T00:39:23;4.15;;;3.08;;
65459;SDS011;52058;49.822;6.754;2023-06-05T00:41:49;4.15;;;3.25;;
65459;SDS011;52058;49.822;6.754;2023-06-05T00:44:17;5.50;;;2.90;;
65459;SDS011;52058;49.822;6.754;2023-06-05T00:46:44;4.20;;;3.25;;
65459;SDS011;52058;49.822;6.754;2023-06-05T00:49:11;4.60;;;3.10;;
65459;SDS011;52058;49.822;6.754;2023-06-05T00:51:38;3.85;;;3.10;;
65459;SDS011;52058;49.822;6.754;2023-06-05T00:54:09;5.00;;;3.40;;
65459;SDS011;52058;49.822;6.754;2023-06-05T00:56:36;3.55;;;2.83;;
65459;SDS011;52058;49.822;6.754;2023-06-05T00:59:04;4.07;;;3.38;;
65459;SDS011;52058;49.822;6.754;2023-06-05T01:01:31;4.28;;;3.25;;
65459;SDS011;52058;49.822;6.754;2023-06-05T01:03:59;5.03;;;2.70;;
65459;SDS011;52058;49.822;6.754;2023-06-05T01:06:26;5.32;;;3.40;;
65459;SDS011;52058;49.822;6.754;2023-06-05T01:08:56;6.50;;;3.08;;
65459;SDS011;52058;49.822;6.754;2023-06-05T01:11:27;6.15;;;3.83;;
65459;SDS011;52058;49.822;6.754;2023-06-05T01:13:58;4.05;;;2.90;;
65459;SDS011;52058;49.822;6.754;2023-06-05T01:16:33;3.75;;;3.00;;
65459;SDS011;52058;49.822;6.754;2023-06-05T01:19:00;4.97;;;3.13;;
65459;SDS011;52058;49.822;6.754;2023-06-05T01:21:28;4.43;;;3.22;;
65459;SDS011;52058;49.822;6.754;2023-06-05T01:23:56;4.90;;;3.10;;
65459;SDS011;52058;49.822;6.754;2023-06-05T01:26:24;3.63;;;2.92;;
65459;SDS011;52058;49.822;6.754;2023-06-05T01:28:56;7.20;;;3.35;;
65459;SDS011;52058;49.822;6.754;2023-06-05T01:31:25;4.65;;;3.28;;
65459;SDS011;52058;49.822;6.754;2023-06-05T01:33:56;6.32;;;3.03;;
65459;SDS011;52058;49.822;6.754;2023-06-05T01:36:28;4.07;;;3.20;;
65459;SDS011;52058;49.822;6.754;2023-06-05T01:38:57;3.78;;;2.90;;
65459;SDS011;52058;49.822;6.754;2023-06-05T01:41:26;5.32;;;2.90;;
65459;SDS011;52058;49.822;6.754;2023-06-05T01:43:54;3.63;;;3.10;;
65459;SDS011;52058;49.822;6.754;2023-06-05T01:46:22;4.32;;;2.80;;
65459;SDS011;52058;49.822;6.754;2023-06-05T01:48:49;3.70;;;3.03;;
65459;SDS011;52058;49.822;6.754;2023-06-05T01:51:17;3.60;;;2.97;;
65459;SDS011;52058;49.822;6.754;2023-06-05T01:53:44;5.53;;;3.08;;
65459;SDS011;52058;49.822;6.754;2023-06-05T01:56:15;6.70;;;3.25;;
65459;SDS011;52058;49.822;6.754;2023-06-05T01:58:44;3.63;;;3.20;;
65459;SDS011;52058;49.822;6.754;2023-06-05T02:01:11;4.18;;;2.90;;
65459;SDS011;52058;49.822;6.754;2023-06-05T02:03:40;5.15;;;3.30;;
65459;SDS011;52058;49.822;6.754;2023-06-05T02:06:12;4.18;;;3.03;;
65459;SDS011;52058;49.822;6.754;2023-06-05T02:08:39;4.88;;;3.20;;
65459;SDS011;52058;49.822;6.754;2023-06-05T02:11:05;4.65;;;3.00;;
65459;SDS011;52058;49.822;6.754;2023-06-05T02:13:36;3.42;;;2.90;;
65459;SDS011;52058;49.822;6.754;2023-06-05T02:16:03;4.88;;;3.25;;
65459;SDS011;52058;49.822;6.754;2023-06-05T02:18:30;5.20;;;3.33;;
65459;SDS011;52058;49.822;6.754;2023-06-05T02:20:57;4.43;;;3.05;;
65459;SDS011;52058;49.822;6.754;2023-06-05T02:23:24;6.47;;;3.17;;
65459;SDS011;52058;49.822;6.754;2023-06-05T02:25:51;3.38;;;3.00;;
65459;SDS011;52058;49.822;6.754;2023-06-05T02:28:18;3.60;;;2.72;;
65459;SDS011;52058;49.822;6.754;2023-06-05T02:30:47;5.43;;;3.40;;
65459;SDS011;52058;49.822;6.754;2023-06-05T02:33:14;3.38;;;2.90;;
65459;SDS011;52058;49.822;6.754;2023-06-05T02:35:40;4.32;;;3.10;;
65459;SDS011;52058;49.822;6.754;2023-06-05T02:38:07;4.25;;;3.35;;
65459;SDS011;52058;49.822;6.754;2023-06-05T02:40:35;3.10;;;2.72;;
65459;SDS011;52058;49.822;6.754;2023-06-05T02:43:01;5.38;;;3.05;;
65459;SDS011;52058;49.822;6.754;2023-06-05T02:45:30;3.47;;;3.10;;
65459;SDS011;52058;49.822;6.754;2023-06-05T02:47:59;3.53;;;3.00;;
65459;SDS011;52058;49.822;6.754;2023-06-05T02:50:26;5.10;;;3.30;;
65459;SDS011;52058;49.822;6.754;2023-06-05T02:52:53;3.42;;;2.97;;
65459;SDS011;52058;49.822;6.754;2023-06-05T02:55:20;4.35;;;3.10;;
65459;SDS011;52058;49.822;6.754;2023-06-05T02:57:46;5.57;;;3.03;;
65459;SDS011;52058;49.822;6.754;2023-06-05T03:00:14;4.45;;;3.35;;
65459;SDS011;52058;49.822;6.754;2023-06-05T03:02:42;4.28;;;3.40;;
65459;SDS011;52058;49.822;6.754;2023-06-05T03:05:14;5.13;;;3.55;;
65459;SDS011;52058;49.822;6.754;2023-06-05T03:07:42;4.60;;;3.25;;
65459;SDS011;52058;49.822;6.754;2023-06-05T03:10:09;3.58;;;2.95;;
65459;SDS011;52058;49.822;6.754;2023-06-05T03:12:35;5.60;;;3.33;;
65459;SDS011;52058;49.822;6.754;2023-06-05T03:15:02;5.50;;;3.80;;
65459;SDS011;52058;49.822;6.754;2023-06-05T03:17:29;4.82;;;3.38;;
65459;SDS011;52058;49.822;6.754;2023-06-05T03:19:56;4.00;;;3.20;;
65459;SDS011;52058;49.822;6.754;2023-06-05T03:22:24;3.60;;;3.10;;
65459;SDS011;52058;49.822;6.754;2023-06-05T03:24:51;3.80;;;2.92;;
65459;SDS011;52058;49.822;6.754;2023-06-05T03:27:17;4.30;;;3.30;;
65459;SDS011;52058;49.822;6.754;2023-06-05T03:29:44;3.55;;;3.15;;
65459;SDS011;52058;49.822;6.754;2023-06-05T03:32:11;3.50;;;3.00;;
65459;SDS011;52058;49.822;6.754;2023-06-05T03:34:37;3.67;;;3.25;;
65459;SDS011;52058;49.822;6.754;2023-06-05T03:37:07;4.65;;;3.30;;
65459;SDS011;52058;49.822;6.754;2023-06-05T03:39:36;4.18;;;3.28;;
65459;SDS011;52058;49.822;6.754;2023-06-05T03:42:02;4.90;;;3.20;;
65459;SDS011;52058;49.822;6.754;2023-06-05T03:44:31;4.20;;;3.25;;
65459;SDS011;52058;49.822;6.754;2023-06-05T03:46:58;5.80;;;3.28;;
65459;SDS011;52058;49.822;6.754;2023-06-05T03:49:24;4.30;;;3.00;;
65459;SDS011;52058;49.822;6.754;2023-06-05T03:51:53;3.75;;;3.25;;
65459;SDS011;52058;49.822;6.754;2023-06-05T03:54:23;4.65;;;3.20;;
65459;SDS011;52058;49.822;6.754;2023-06-05T03:56:52;4.22;;;3.20;;
65459;SDS011;52058;49.822;6.754;2023-06-05T03:59:20;6.22;;;3.10;;
65459;SDS011;52058;49.822;6.754;2023-06-05T04:01:48;7.22;;;3.00;;
65459;SDS011;52058;49.822;6.754;2023-06-05T04:04:14;4.50;;;3.20;;
65459;SDS011;52058;49.822;6.754;2023-06-05T04:06:41;3.58;;;3.10;;
65459;SDS011;52058;49.822;6.754;2023-06-05T04:09:08;5.38;;;3.10;;
65459;SDS011;52058;49.822;6.754;2023-06-05T04:11:37;4.43;;;3.45;;
65459;SDS011;52058;49.822;6.754;2023-06-05T04:14:05;5.85;;;3.70;;
65459;SDS011;52058;49.822;6.754;2023-06-05T04:16:33;4.43;;;3.00;;
65459;SDS011;52058;49.822;6.754;2023-06-05T04:18:59;5.22;;;3.13;;
65459;SDS011;52058;49.822;6.754;2023-06-05T04:21:27;3.95;;;3.20;;
65459;SDS011;52058;49.822;6.754;2023-06-05T04:23:53;6.57;;;3.60;;
65459;SDS011;52058;49.822;6.754;2023-06-05T04:26:20;4.65;;;3.10;;
65459;SDS011;52058;49.822;6.754;2023-06-05T04:28:48;5.93;;;3.90;;
65459;SDS011;52058;49.822;6.754;2023-06-05T04:31:17;3.88;;;2.97;;
65459;SDS011;52058;49.822;6.754;2023-06-05T04:33:44;6.00;;;3.40;;
65459;SDS011;52058;49.822;6.754;2023-06-05T04:36:10;4.85;;;3.00;;
65459;SDS011;52058;49.822;6.754;2023-06-05T04:38:37;4.57;;;3.45;;
65459;SDS011;52058;49.822;6.754;2023-06-05T04:41:04;5.32;;;3.53;;
65459;SDS011;52058;49.822;6.754;2023-06-05T04:43:31;4.68;;;3.00;;
65459;SDS011;52058;49.822;6.754;2023-06-05T04:45:58;4.50;;;3.92;;
65459;SDS011;52058;49.822;6.754;2023-06-05T04:48:27;4.68;;;3.40;;
65459;SDS011;52058;49.822;6.754;2023-06-05T04:50:53;4.90;;;3.63;;
65459;SDS011;52058;49.822;6.754;2023-06-05T04:53:21;4.18;;;3.30;;
65459;SDS011;52058;49.822;6.754;2023-06-05T04:55:47;5.43;;;3.38;;
65459;SDS011;52058;49.822;6.754;2023-06-05T04:58:14;5.03;;;3.38;;
65459;SDS011;52058;49.822;6.754;2023-06-05T05:00:41;7.57;;;3.47;;
65459;SDS011;52058;49.822;6.754;2023-06-05T05:03:09;5.53;;;3.47;;
65459;SDS011;52058;49.822;6.754;2023-06-05T05:05:38;4.93;;;3.42;;
65459;SDS011;52058;49.822;6.754;2023-06-05T05:08:04;5.88;;;3.28;;
65459;SDS011;52058;49.822;6.754;2023-06-05T05:10:31;6.30;;;3.38;;
65459;SDS011;52058;49.822;6.754;2023-06-05T05:12:58;9.05;;;3.55;;
65459;SDS011;52058;49.822;6.754;2023-06-05T05:15:26;5.95;;;3.60;;
65459;SDS011;52058;49.822;6.754;2023-06-05T05:17:53;4.68;;;3.10;;
65459;SDS011;52058;49.822;6.754;2023-06-05T05:20:21;4.00;;;3.17;;
65459;SDS011;52058;49.822;6.754;2023-06-05T05:22:49;6.85;;;3.40;;
65459;SDS011;52058;49.822;6.754;2023-06-05T05:25:15;5.25;;;3.13;;
65459;SDS011;52058;49.822;6.754;2023-06-05T05:27:42;4.30;;;3.42;;
65459;SDS011;52058;49.822;6.754;2023-06-05T05:30:09;5.25;;;3.13;;
65459;SDS011;52058;49.822;6.754;2023-06-05T05:32:36;5.97;;;3.20;;
65459;SDS011;52058;49.822;6.754;2023-06-05T05:35:02;5.18;;;3.35;;
65459;SDS011;52058;49.822;6.754;2023-06-05T05:37:29;4.38;;;3.25;;
65459;SDS011;52058;49.822;6.754;2023-06-05T05:39:57;4.30;;;3.13;;
65459;SDS011;52058;49.822;6.754;2023-06-05T05:42:24;4.35;;;3.20;;
65459;SDS011;52058;49.822;6.754;2023-06-05T05:44:50;5.95;;;3.55;;
65459;SDS011;52058;49.822;6.754;2023-06-05T05:47:17;7.65;;;3.30;;
65459;SDS011;52058;49.822;6.754;2023-06-05T05:49:43;5.30;;;3.53;;
65459;SDS011;52058;49.822;6.754;2023-06-05T05:52:10;7.60;;;3.38;;
65459;SDS011;52058;49.822;6.754;2023-06-05T05:54:36;7.63;;;3.05;;
65459;SDS011;52058;49.822;6.754;2023-06-05T05:57:04;7.80;;;3.00;;
65459;SDS011;52058;49.822;6.754;2023-06-05T05:59:32;7.10;;;3.67;;
65459;SDS011;52058;49.822;6.754;2023-06-05T06:01:58;6.30;;;2.60;;
65459;SDS011;52058;49.822;6.754;2023-06-05T06:04:26;4.35;;;2.70;;
65459;SDS011;52058;49.822;6.754;2023-06-05T06:06:52;9.05;;;3.10;;
65459;SDS011;52058;49.822;6.754;2023-06-05T06:09:21;5.88;;;3.08;;
65459;SDS011;52058;49.822;6.754;2023-06-05T06:11:48;4.88;;;2.25;;
65459;SDS011;52058;49.822;6.754;2023-06-05T06:14:15;6.22;;;2.15;;
65459;SDS011;52058;49.822;6.754;2023-06-05T06:16:42;4.45;;;2.50;;
65459;SDS011;52058;49.822;6.754;2023-06-05T06:19:09;7.30;;;2.40;;
65459;SDS011;52058;49.822;6.754;2023-06-05T06:21:39;5.03;;;2.17;;
65459;SDS011;52058;49.822;6.754;2023-06-05T06:24:05;4.72;;;2.00;;
65459;SDS011;52058;49.822;6.754;2023-06-05T06:26:32;4.72;;;2.00;;
65459;SDS011;52058;49.822;6.754;2023-06-05T06:28:59;4.57;;;2.22;;
65459;SDS011;52058;49.822;6.754;2023-06-05T06:31:27;4.40;;;2.13;;
65459;SDS011;52058;49.822;6.754;2023-06-05T06:33:53;5.82;;;2.30;;
65459;SDS011;52058;49.822;6.754;2023-06-05T06:36:20;4.20;;;2.45;;
65459;SDS011;52058;49.822;6.754;2023-06-05T06:38:47;7.03;;;2.03;;
65459;SDS011;52058;49.822;6.754;2023-06-05T06:41:14;3.85;;;2.20;;
65459;SDS011;52058;49.822;6.754;2023-06-05T06:43:41;7.53;;;2.65;;
65459;SDS011;52058;49.822;6.754;2023-06-05T06:46:08;3.20;;;2.30;;
65459;SDS011;52058;49.822;6.754;2023-06-05T06:48:36;4.68;;;2.20;;
65459;SDS011;52058;49.822;6.754;2023-06-05T06:51:02;5.95;;;2.00;;
65459;SDS011;52058;49.822;6.754;2023-06-05T06:53:29;3.83;;;1.80;;
65459;SDS011;52058;49.822;6.754;2023-06-05T06:55:55;5.43;;;2.17;;
65459;SDS011;52058;49.822;6.754;2023-06-05T06:58:22;8.38;;;2.65;;
65459;SDS011;52058;49.822;6.754;2023-06-05T07:00:49;4.15;;;2.10;;
65459;SDS011;52058;49.822;6.754;2023-06-05T07:03:16;5.75;;;2.10;;
65459;SDS011;52058;49.822;6.754;2023-06-05T07:05:44;8.65;;;2.25;;
65459;SDS011;52058;49.822;6.754;2023-06-05T07:08:10;3.75;;;1.70;;
65459;SDS011;52058;49.822;6.754;2023-06-05T07:10:37;6.95;;;2.20;;
65459;SDS011;52058;49.822;6.754;2023-06-05T07:13:05;5.75;;;2.17;;
65459;SDS011;52058;49.822;6.754;2023-06-05T07:15:32;5.25;;;2.25;;
65459;SDS011;52058;49.822;6.754;2023-06-05T07:17:58;5.28;;;2.28;;
65459;SDS011;52058;49.822;6.754;2023-06-05T07:20:25;3.65;;;2.13;;
65459;SDS011;52058;49.822;6.754;2023-06-05T07:22:53;5.80;;;2.15;;
65459;SDS011;52058;49.822;6.754;2023-06-05T07:25:19;5.30;;;2.13;;
65459;SDS011;52058;49.822;6.754;2023-06-05T07:27:49;6.28;;;2.20;;
65459;SDS011;52058;49.822;6.754;2023-06-05T07:30:16;3.80;;;1.80;;
65459;SDS011;52058;49.822;6.754;2023-06-05T07:32:42;3.97;;;1.73;;
65459;SDS011;52058;49.822;6.754;2023-06-05T07:35:10;2.22;;;1.50;;
65459;SDS011;52058;49.822;6.754;2023-06-05T07:37:37;2.50;;;1.75;;
65459;SDS011;52058;49.822;6.754;2023-06-05T07:40:06;3.47;;;1.67;;
65459;SDS011;52058;49.822;6.754;2023-06-05T07:42:34;3.17;;;1.83;;
65459;SDS011;52058;49.822;6.754;2023-06-05T07:45:01;2.80;;;1.50;;
65459;SDS011;52058;49.822;6.754;2023-06-05T07:47:27;4.25;;;1.65;;
65459;SDS011;52058;49.822;6.754;2023-06-05T07:49:57;3.65;;;1.38;;
65459;SDS011;52058;49.822;6.754;2023-06-05T07:52:24;1.88;;;1.52;;
65459;SDS011;52058;49.822;6.754;2023-06-05T07:54:51;4.88;;;1.60;;
65459;SDS011;52058;49.822;6.754;2023-06-05T07:57:19;5.78;;;1.80;;
65459;SDS011;52058;49.822;6.754;2023-06-05T07:59:46;2.17;;;1.30;;
65459;SDS011;52058;49.822;6.754;2023-06-05T08:02:14;4.65;;;1.40;;
65459;SDS011;52058;49.822;6.754;2023-06-05T08:04:41;3.25;;;1.70;;
65459;SDS011;52058;49.822;6.754;2023-06-05T08:07:08;4.00;;;1.40;;
65459;SDS011;52058;49.822;6.754;2023-06-05T08:09:34;7.18;;;1.98;;
65459;SDS011;52058;49.822;6.754;2023-06-05T08:12:02;3.33;;;1.67;;
65459;SDS011;52058;49.822;6.754;2023-06-05T08:14:30;3.63;;;1.50;;
65459;SDS011;52058;49.822;6.754;2023-06-05T08:16:57;4.22;;;1.15;;
65459;SDS011;52058;49.822;6.754;2023-06-05T08:19:23;4.25;;;1.80;;
65459;SDS011;52058;49.822;6.754;2023-06-05T08:21:51;4.03;;;1.60;;
65459;SDS011;52058;49.822;6.754;2023-06-05T08:24:19;3.90;;;1.38;;
65459;SDS011;52058;49.822;6.754;2023-06-05T08:26:45;2.88;;;1.35;;
65459;SDS011;52058;49.822;6.754;2023-06-05T08:29:12;5.80;;;1.90;;
65459;SDS011;52058;49.822;6.754;2023-06-05T08:31:40;7.93;;;1.88;;
65459;SDS011;52058;49.822;6.754;2023-06-05T08:34:07;2.92;;;1.63;;
65459;SDS011;52058;49.822;6.754;2023-06-05T08:36:33;5.57;;;1.50;;
65459;SDS011;52058;49.822;6.754;2023-06-05T08:39:00;5.47;;;1.63;;
65459;SDS011;52058;49.822;6.754;2023-06-05T08:41:29;3.33;;;1.30;;
65459;SDS011;52058;49.822;6.754;2023-06-05T08:43:56;2.13;;;1.50;;
65459;SDS011;52058;49.822;6.754;2023-06-05T08:46:23;1.85;;;1.55;;
65459;SDS011;52058;49.822;6.754;2023-06-05T08:48:55;4.57;;;1.50;;
65459;SDS011;52058;49.822;6.754;2023-06-05T08:51:23;3.45;;;1.50;;
65459;SDS011;52058;49.822;6.754;2023-06-05T08:53:51;4.68;;;1.35;;
65459;SDS011;52058;49.822;6.754;2023-06-05T08:56:21;2.85;;;1.23;;
65459;SDS011;52058;49.822;6.754;2023-06-05T08:58:48;2.22;;;1.40;;
65459;SDS011;52058;49.822;6.754;2023-06-05T09:01:15;3.58;;;1.42;;
65459;SDS011;52058;49.822;6.754;2023-06-05T09:03:42;4.07;;;1.38;;
65459;SDS011;52058;49.822;6.754;2023-06-05T09:06:11;2.30;;;1.40;;
65459;SDS011;52058;49.822;6.754;2023-06-05T09:08:37;4.40;;;1.55;;
65459;SDS011;52058;49.822;6.754;2023-06-05T09:11:22;11.05;;;1.65;;
65459;SDS011;52058;49.822;6.754;2023-06-05T09:13:50;4.28;;;1.77;;
65459;SDS011;52058;49.822;6.754;2023-06-05T09:16:21;2.28;;;1.40;;
65459;SDS011;52058;49.822;6.754;2023-06-05T09:18:52;4.32;;;1.70;;
65459;SDS011;52058;49.822;6.754;2023-06-05T09:21:20;4.55;;;1.33;;
65459;SDS011;52058;49.822;6.754;2023-06-05T09:23:54;3.30;;;1.35;;
65459;SDS011;52058;49.822;6.754;2023-06-05T09:26:45;2.72;;;1.40;;
65459;SDS011;52058;49.822;6.754;2023-06-05T09:29:13;5.13;;;1.60;;
65459;SDS011;52058;49.822;6.754;2023-06-05T09:31:40;5.72;;;1.35;;
65459;SDS011;52058;49.822;6.754;2023-06-05T09:34:07;8.32;;;1.85;;
65459;SDS011;52058;49.822;6.754;2023-06-05T09:36:36;2.95;;;1.50;;
65459;SDS011;52058;49.822;6.754;2023-06-05T09:39:14;4.15;;;1.45;;
65459;SDS011;52058;49.822;6.754;2023-06-05T09:41:44;6.13;;;1.80;;
65459;SDS011;52058;49.822;6.754;2023-06-05T09:44:12;1.70;;;1.30;;
65459;SDS011;52058;49.822;6.754;2023-06-05T09:46:52;2.63;;;1.45;;
65459;SDS011;52058;49.822;6.754;2023-06-05T09:49:21;2.35;;;1.50;;
65459;SDS011;52058;49.822;6.754;2023-06-05T09:51:57;3.42;;;1.77;;
65459;SDS011;52058;49.822;6.754;2023-06-05T09:54:25;3.67;;;1.70;;
65459;SDS011;52058;49.822;6.754;2023-06-05T09:56:55;3.65;;;1.85;;
65459;SDS011;52058;49.822;6.754;2023-06-05T09:59:25;3.83;;;1.77;;
65459;SDS011;52058;49.822;6.754;2023-06-05T10:01:53;3.20;;;1.67;;
65459;SDS011;52058;49.822;6.754;2023-06-05T10:04:22;2.88;;;1.70;;
65459;SDS011;52058;49.822;6.754;2023-06-05T10:06:50;3.00;;;1.42;;
65459;SDS011;52058;49.822;6.754;2023-06-05T10:09:19;4.25;;;1.65;;
65459;SDS011;52058;49.822;6.754;2023-06-05T10:11:49;4.22;;;1.58;;
65459;SDS011;52058;49.822;6.754;2023-06-05T10:14:17;2.13;;;1.30;;
65459;SDS011;52058;49.822;6.754;2023-06-05T10:16:45;3.80;;;1.70;;
65459;SDS011;52058;49.822;6.754;2023-06-05T10:19:15;4.32;;;1.60;;
65459;SDS011;52058;49.822;6.754;2023-06-05T10:21:45;3.47;;;1.70;;
65459;SDS011;52058;49.822;6.754;2023-06-05T10:24:13;2.20;;;1.30;;
65459;SDS011;52058;49.822;6.754;2023-06-05T10:26:48;7.93;;;2.00;;
65459;SDS011;52058;49.822;6.754;2023-06-05T10:29:39;4.43;;;1.63;;
65459;SDS011;52058;49.822;6.754;2023-06-05T10:32:22;2.22;;;1.83;;
65459;SDS011;52058;49.822;6.754;2023-06-05T10:35:05;3.57;;;1.57;;
65459;SDS011;52058;49.822;6.754;2023-06-05T10:37:43;5.65;;;1.55;;
65459;SDS011;52058;49.822;6.754;2023-06-05T10:40:19;2.38;;;1.77;;
65459;SDS011;52058;49.822;6.754;2023-06-05T10:42:48;3.13;;;1.73;;
65459;SDS011;52058;49.822;6.754;2023-06-05T10:45:22;2.33;;;1.65;;
65459;SDS011;52058;49.822;6.754;2023-06-05T10:47:57;4.88;;;1.50;;
65459;SDS011;52058;49.822;6.754;2023-06-05T10:50:24;2.13;;;1.38;;
65459;SDS011;52058;49.822;6.754;2023-06-05T10:52:53;4.03;;;1.70;;
65459;SDS011;52058;49.822;6.754;2023-06-05T10:55:20;4.28;;;1.73;;
65459;SDS011;52058;49.822;6.754;2023-06-05T10:58:08;5.38;;;1.60;;
65459;SDS011;52058;49.822;6.754;2023-06-05T11:00:39;1.95;;;1.52;;
65459;SDS011;52058;49.822;6.754;2023-06-05T11:03:54;2.33;;;1.40;;
65459;SDS011;52058;49.822;6.754;2023-06-05T11:06:22;3.67;;;1.75;;
65459;SDS011;52058;49.822;6.754;2023-06-05T11:09:08;1.90;;;1.52;;
65459;SDS011;52058;49.822;6.754;2023-06-05T11:11:56;2.40;;;1.58;;
65459;SDS011;52058;49.822;6.754;2023-06-05T11:14:25;2.55;;;1.90;;
65459;SDS011;52058;49.822;6.754;2023-06-05T11:17:31;3.95;;;1.60;;
65459;SDS011;52058;49.822;6.754;2023-06-05T11:19:58;1.85;;;1.50;;
65459;SDS011;52058;49.822;6.754;2023-06-05T11:22:25;2.53;;;1.45;;
65459;SDS011;52058;49.822;6.754;2023-06-05T11:27:52;3.58;;;1.40;;
65459;SDS011;52058;49.822;6.754;2023-06-05T11:30:21;3.67;;;1.42;;
65459;SDS011;52058;49.822;6.754;2023-06-05T11:32:49;3.35;;;1.73;;
65459;SDS011;52058;49.822;6.754;2023-06-05T11:35:19;6.72;;;2.38;;
65459;SDS011;52058;49.822;6.754;2023-06-05T11:37:46;2.85;;;1.60;;
65459;SDS011;52058;49.822;6.754;2023-06-05T11:40:23;4.35;;;2.05;;
65459;SDS011;52058;49.822;6.754;2023-06-05T11:42:50;2.88;;;1.77;;
65459;SDS011;52058;49.822;6.754;2023-06-05T11:45:17;4.00;;;1.80;;
65459;SDS011;52058;49.822;6.754;2023-06-05T11:47:45;4.90;;;1.60;;
65459;SDS011;52058;49.822;6.754;2023-06-05T11:50:12;4.40;;;2.05;;
65459;SDS011;52058;49.822;6.754;2023-06-05T11:52:40;11.48;;;1.88;;
65459;SDS011;52058;49.822;6.754;2023-06-05T11:55:11;2.60;;;1.70;;
65459;SDS011;52058;49.822;6.754;2023-06-05T12:00:07;4.32;;;1.77;;
65459;SDS011;52058;49.822;6.754;2023-06-05T12:02:36;4.32;;;1.75;;
65459;SDS011;52058;49.822;6.754;2023-06-05T12:05:04;3.58;;;1.60;;
65459;SDS011;52058;49.822;6.754;2023-06-05T12:07:32;3.78;;;1.92;;
65459;SDS011;52058;49.822;6.754;2023-06-05T12:10:01;3.72;;;1.60;;
65459;SDS011;52058;49.822;6.754;2023-06-05T12:12:28;3.58;;;1.75;;
65459;SDS011;52058;49.822;6.754;2023-06-05T12:14:55;2.72;;;1.60;;
65459;SDS011;52058;49.822;6.754;2023-06-05T12:17:22;6.93;;;1.67;;
65459;SDS011;52058;49.822;6.754;2023-06-05T12:19:52;3.63;;;1.67;;
65459;SDS011;52058;49.822;6.754;2023-06-05T12:22:20;3.03;;;1.70;;
65459;SDS011;52058;49.822;6.754;2023-06-05T12:24:47;2.42;;;1.60;;
65459;SDS011;52058;49.822;6.754;2023-06-05T12:27:13;2.70;;;1.60;;
65459;SDS011;52058;49.822;6.754;2023-06-05T12:29:53;4.70;;;1.92;;
65459;SDS011;52058;49.822;6.754;2023-06-05T12:32:21;7.30;;;2.03;;
65459;SDS011;52058;49.822;6.754;2023-06-05T12:34:48;3.42;;;1.83;;
65459;SDS011;52058;49.822;6.754;2023-06-05T12:37:24;2.20;;;1.73;;
65459;SDS011;52058;49.822;6.754;2023-06-05T12:39:54;3.92;;;1.95;;
65459;SDS011;52058;49.822;6.754;2023-06-05T12:42:21;3.40;;;1.63;;
65459;SDS011;52058;49.822;6.754;2023-06-05T12:44:47;3.30;;;1.60;;
65459;SDS011;52058;49.822;6.754;2023-06-05T12:47:15;1.80;;;1.65;;
65459;SDS011;52058;49.822;6.754;2023-06-05T12:49:41;2.13;;;1.70;;
65459;SDS011;52058;49.822;6.754;2023-06-05T12:52:08;4.57;;;1.70;;
65459;SDS011;52058;49.822;6.754;2023-06-05T12:54:36;6.15;;;1.92;;
65459;SDS011;52058;49.822;6.754;2023-06-05T12:57:04;2.83;;;1.70;;
65459;SDS011;52058;49.822;6.754;2023-06-05T12:59:32;3.92;;;1.83;;
65459;SDS011;52058;49.822;6.754;2023-06-05T13:01:59;2.92;;;1.75;;
65459;SDS011;52058;49.822;6.754;2023-06-05T13:04:26;5.10;;;1.88;;
65459;SDS011;52058;49.822;6.754;2023-06-05T13:06:53;4.63;;;2.15;;
65459;SDS011;52058;49.822;6.754;2023-06-05T13:09:20;2.75;;;1.80;;
65459;SDS011;52058;49.822;6.754;2023-06-05T13:11:48;1.85;;;1.58;;
65459;SDS011;52058;49.822;6.754;2023-06-05T13:14:14;2.30;;;1.65;;
65459;SDS011;52058;49.822;6.754;2023-06-05T13:16:41;3.58;;;1.90;;
65459;SDS011;52058;49.822;6.754;2023-06-05T13:19:07;2.05;;;1.65;;
65459;SDS011;52058;49.822;6.754;2023-06-05T13:21:34;2.45;;;2.00;;
65459;SDS011;52058;49.822;6.754;2023-06-05T13:24:00;1.80;;;1.60;;
65459;SDS011;52058;49.822;6.754;2023-06-05T13:26:27;2.13;;;1.60;;
65459;SDS011;52058;49.822;6.754;2023-06-05T13:28:55;2.90;;;1.73;;
65459;SDS011;52058;49.822;6.754;2023-06-05T13:31:21;3.08;;;1.50;;
65459;SDS011;52058;49.822;6.754;2023-06-05T13:33:48;2.42;;;1.63;;
65459;SDS011;52058;49.822;6.754;2023-06-05T13:36:15;2.10;;;1.60;;
65459;SDS011;52058;49.822;6.754;2023-06-05T13:38:41;3.13;;;1.85;;
65459;SDS011;52058;49.822;6.754;2023-06-05T13:41:08;1.75;;;1.65;;
65459;SDS011;52058;49.822;6.754;2023-06-05T13:43:34;3.65;;;1.70;;
65459;SDS011;52058;49.822;6.754;2023-06-05T13:46:02;2.90;;;1.60;;
65459;SDS011;52058;49.822;6.754;2023-06-05T13:48:29;4.22;;;1.70;;
65459;SDS011;52058;49.822;6.754;2023-06-05T13:50:56;2.55;;;1.58;;
65459;SDS011;52058;49.822;6.754;2023-06-05T13:53:22;2.47;;;1.60;;
65459;SDS011;52058;49.822;6.754;2023-06-05T13:55:49;3.72;;;2.10;;
65459;SDS011;52058;49.822;6.754;2023-06-05T13:58:16;3.05;;;1.70;;
65459;SDS011;52058;49.822;6.754;2023-06-05T14:00:42;2.10;;;1.55;;
65459;SDS011;52058;49.822;6.754;2023-06-05T14:03:10;3.80;;;1.70;;
65459;SDS011;52058;49.822;6.754;2023-06-05T14:05:38;2.80;;;1.92;;
65459;SDS011;52058;49.822;6.754;2023-06-05T14:08:04;4.05;;;1.58;;
65459;SDS011;52058;49.822;6.754;2023-06-05T14:10:32;2.78;;;1.60;;
65459;SDS011;52058;49.822;6.754;2023-06-05T14:13:01;1.50;;;1.40;;
65459;SDS011;52058;49.822;6.754;2023-06-05T14:15:30;3.10;;;1.70;;
65459;SDS011;52058;49.822;6.754;2023-06-05T14:17:57;3.50;;;1.60;;
65459;SDS011;52058;49.822;6.754;2023-06-05T14:20:25;3.28;;;1.65;;
65459;SDS011;52058;49.822;6.754;2023-06-05T14:22:51;3.50;;;1.63;;
65459;SDS011;52058;49.822;6.754;2023-06-05T14:25:18;5.82;;;1.58;;
65459;SDS011;52058;49.822;6.754;2023-06-05T14:27:45;1.80;;;1.40;;
65459;SDS011;52058;49.822;6.754;2023-06-05T14:30:12;5.45;;;1.60;;
65459;SDS011;52058;49.822;6.754;2023-06-05T14:32:39;3.88;;;1.70;;
65459;SDS011;52058;49.822;6.754;2023-06-05T14:35:07;3.20;;;1.67;;
65459;SDS011;52058;49.822;6.754;2023-06-05T14:37:35;3.30;;;1.70;;
65459;SDS011;52058;49.822;6.754;2023-06-05T14:40:02;2.00;;;1.60;;
65459;SDS011;52058;49.822;6.754;2023-06-05T14:42:29;3.90;;;1.52;;
65459;SDS011;52058;49.822;6.754;2023-06-05T14:44:56;2.20;;;1.60;;
65459;SDS011;52058;49.822;6.754;2023-06-05T14:47:22;2.42;;;1.45;;
65459;SDS011;52058;49.822;6.754;2023-06-05T14:49:49;2.35;;;1.88;;
65459;SDS011;52058;49.822;6.754;2023-06-05T14:52:15;3.28;;;1.70;;
65459;SDS011;52058;49.822;6.754;2023-06-05T14:54:44;3.00;;;1.60;;
65459;SDS011;52058;49.822;6.754;2023-06-05T14:57:11;2.90;;;1.80;;
65459;SDS011;52058;49.822;6.754;2023-06-05T14:59:37;3.42;;;1.70;;